Terminal Aerodrome Forecast
Issued by NWS

Home | Current Version | Previous Version | Text Only | Print | Product List | Glossary On
Versions: 1 2 3 4 5 6 7 8 9 10 11 12 13 14 15 16 17 18 19 20 21
000
FTUS43 KIWX 220538
TAFSBN
TAF
KSBN 220538Z 2206/2306 00000KT 1/4SM FG VV002
     FM221300 07003KT 1SM BR OVC004
     FM221500 04004KT 3SM BR BKN008
     FM221700 01008KT P6SM SCT020 OVC060
     FM230000 02006KT 4SM BR OVC008=

USA.gov is the U.S. government's official web portal to all federal, state and local government web resources and services.